Flagstaff, AZ

11:12 PM MST on August 30, 2014 (GMT -0700)
Sedona | Change Station
CLOSE
Current Station
Airport
Location: Sedona,
Elevation: 4826 ft
Nearby Weather Stations

Elev 4826 ft 34.85 °N, 111.79 °W | Updated 17 minutes ago

Clear
Clear
75 °F
Feels Like 75 °F
N
4
Wind Variable Wind from NNE

Today
High -- | Low -- °F
--% Chance of Precip.
Yesterday
High -- | Low -- °F
Precip. -- in
5:57 AM 6:55 PM
Waxing Crescent, 28% visible
Pressure 30.05 in
Visibility 10.0 miles
Clouds Clear
Dew Point 41 °F
Humidity 29%
Rainfall 0.00 in
Snow Depth Not available.
UV 0 out of 12
Pollen 6.80 out of 12
Air Quality Not available.
Flu Activity Not available.
METAR KSEZ 310555Z AUTO 03003KT 10SM CLR 24/05 A3005 RMK AO2

More Conditions Fewer Conditions

Pressure 30.05 in
Visibility 10.0 miles
Clouds Clear
Dew Point 41 °F
Humidity 29%
Rainfall 0.00 in
Snow Depth Not available.
UV 0 out of 12
Pollen 6.80 out of 12
Air Quality Not available.
Flu Activity Not available.
METAR KSEZ 310555Z AUTO 03003KT 10SM CLR 24/05 A3005 RMK AO2

More Conditions Fewer Conditions

10-Day Weather Forecast

Almanac

Astronomy

Aug. 30, 2014 Rise Set
Actual Time 5:57 AM MST 6:55 PM MST
Civil Twilight 5:31 AM MST 7:21 PM MST
Nautical Twilight 5:00 AM MST 7:52 PM MST
Astronomical Twilight 4:29 AM MST 8:24 PM MST
Moon 10:36 AM MST (8/30) 9:45 PM MST (8/30)
Length of Visible Light 13h 50m
Length of Day
12h 58m
Tomorrow will be 2m 6s shorter.
Waxing Crescent, 28% of the Moon is Illuminated
Aug 31
Waxing Crescent
Sep 2
First Quarter
Sep 8
Full
Sep 15
Last Quarter
Sep 24
New

Community

WunderPhotos

Upload Photos

1,748,801 photos uploaded!

Nearby

Snow Depth

Station Depth Elevation
White Horse Lake 0 in 7180 ft
Snowslide Canyon 0 in 9730 ft
Workman Creek 1 in 6900 ft
Maverick Fork 0 in 9200 ft
Coronado Trail 3 in 8400 ft

Earthquake Activity

City Distance Mag. Time & Date
No recent earthquake activity has been reported nearby.
Minimum magnitude displayed is 2.5.

Coastal Water Temperatures

Place Temperature
No Stations Reporting

Nearby Weather Stations